createdAt,value
2019-03-10T00:00:19.599Z,70.42
2019-03-10T00:01:20.086Z,70.08
2019-03-10T00:02:20.079Z,70.30
2019-03-10T00:03:20.927Z,70.53
2019-03-10T00:04:21.241Z,69.89
2019-03-10T00:05:22.469Z,69.19
2019-03-10T00:06:22.979Z,69.51
2019-03-10T00:07:21.901Z,69.45
2019-03-10T00:08:22.357Z,69.65
2019-03-10T00:09:22.158Z,69.60
2019-03-10T00:10:23.358Z,69.56
2019-03-10T00:11:23.665Z,69.37
2019-03-10T00:12:24.364Z,68.88
2019-03-10T00:13:24.536Z,69.19
2019-03-10T00:14:24.829Z,69.01
2019-03-10T00:15:25.108Z,69.11
2019-03-10T00:16:26.008Z,68.80
2019-03-10T00:17:26.559Z,69.18
2019-03-10T00:18:27.017Z,69.30
2019-03-10T00:19:27.717Z,69.42
2019-03-10T00:20:28.350Z,69.46
2019-03-10T00:21:28.499Z,69.19
2019-03-10T00:22:28.830Z,69.32
2019-03-10T00:23:29.009Z,69.29
2019-03-10T00:24:28.586Z,69.43
2019-03-10T00:25:30.148Z,69.25
2019-03-10T00:26:30.888Z,69.35
2019-03-10T00:27:31.022Z,69.38
2019-03-10T00:28:31.739Z,69.46
2019-03-10T00:29:31.844Z,69.78
2019-03-10T00:30:32.135Z,69.83
2019-03-10T00:31:32.215Z,69.89
2019-03-10T00:32:32.552Z,69.92
2019-03-10T00:33:32.761Z,69.91
2019-03-10T00:34:33.323Z,70.31
2019-03-10T00:35:33.631Z,70.28
2019-03-10T00:36:33.676Z,70.22
2019-03-10T00:37:34.235Z,70.38
2019-03-10T00:38:34.856Z,70.61
2019-03-10T00:39:35.095Z,70.55
2019-03-10T00:40:35.228Z,70.68
2019-03-10T00:41:35.346Z,71.01
2019-03-10T00:42:35.661Z,70.88
2019-03-10T00:42:44.190Z,71.01
2019-03-10T00:43:45.640Z,71.01
2019-03-10T00:44:45.821Z,70.96
2019-03-10T00:45:46.218Z,71.14
2019-03-10T00:46:46.779Z,71.23
2019-03-10T00:47:46.823Z,71.15
2019-03-10T00:48:47.115Z,71.27
2019-03-10T00:49:47.399Z,71.38
2019-03-10T00:50:47.466Z,71.00
2019-03-10T00:51:47.949Z,71.39
2019-03-10T00:52:48.390Z,71.26
2019-03-10T00:53:48.781Z,71.25
2019-03-10T00:54:48.840Z,71.44
2019-03-10T00:55:49.477Z,71.37
2019-03-10T00:56:49.882Z,71.58
2019-03-10T00:57:50.140Z,71.63
2019-03-10T00:58:50.350Z,71.69
2019-03-10T00:59:50.565Z,71.82
2019-03-10T01:00:50.887Z,72.06
2019-03-10T01:01:51.397Z,72.10
2019-03-10T01:02:52.293Z,72.34
2019-03-10T01:03:52.663Z,72.42
2019-03-10T01:04:51.985Z,72.52
2019-03-10T01:05:53.504Z,72.42
2019-03-10T01:06:53.663Z,72.40
2019-03-10T01:07:53.957Z,72.58
2019-03-10T01:08:54.832Z,72.72
2019-03-10T01:09:54.957Z,72.67
2019-03-10T01:10:55.320Z,72.43
2019-03-10T01:11:55.902Z,72.73
2019-03-10T01:12:56.492Z,72.79
2019-03-10T01:13:56.609Z,72.88
2019-03-10T01:14:56.806Z,72.82
2019-03-10T01:15:56.881Z,72.76
2019-03-10T01:16:56.915Z,72.80
2019-03-10T01:17:57.833Z,72.84
2019-03-10T01:18:58.149Z,72.70
2019-03-10T01:19:58.851Z,72.48
2019-03-10T01:20:58.921Z,72.48
2019-03-10T01:21:59.132Z,72.43
2019-03-10T01:22:59.785Z,72.73
2019-03-10T01:24:00.128Z,72.63
2019-03-10T01:25:00.365Z,72.75
2019-03-10T01:26:00.670Z,73.01
2019-03-10T01:26:09.245Z,73.03
2019-03-10T01:27:10.940Z,73.03
2019-03-10T01:28:11.502Z,73.23
2019-03-10T01:29:11.930Z,73.02
2019-03-10T01:30:12.692Z,73.22
2019-03-10T01:31:12.870Z,73.41
2019-03-10T01:32:12.868Z,73.34
2019-03-10T01:33:13.824Z,73.27
2019-03-10T01:34:13.985Z,73.20
2019-03-10T01:35:14.547Z,73.29
2019-03-10T01:36:14.961Z,73.28
2019-03-10T01:37:15.180Z,73.34
2019-03-10T01:38:15.271Z,73.41
2019-03-10T01:39:15.511Z,73.46
2019-03-10T01:40:15.743Z,73.36
2019-03-10T01:41:16.668Z,73.48
2019-03-10T01:42:17.096Z,73.60
2019-03-10T01:43:17.194Z,73.53
2019-03-10T01:44:17.551Z,73.75
2019-03-10T01:45:17.672Z,73.67
2019-03-10T01:46:18.032Z,74.04
2019-03-10T01:47:18.492Z,73.98
2019-03-10T01:48:18.966Z,73.92
2019-03-10T01:49:19.265Z,73.96
2019-03-10T01:50:19.592Z,74.03
2019-03-10T01:51:19.664Z,74.27
2019-03-10T01:52:19.933Z,74.35
2019-03-10T01:53:25.503Z,74.41
2019-03-10T01:54:20.053Z,74.40
2019-03-10T01:55:20.382Z,74.40
2019-03-10T01:56:21.588Z,74.49
2019-03-10T01:57:22.554Z,74.48
2019-03-10T01:58:23.482Z,74.54
2019-03-10T01:59:23.835Z,74.42
2019-03-10T02:00:24.298Z,74.54
2019-03-10T02:01:24.639Z,74.62
2019-03-10T02:02:25.990Z,74.67
2019-03-10T02:03:24.901Z,74.80
2019-03-10T02:04:25.040Z,74.76
2019-03-10T02:05:26.516Z,74.28
2019-03-10T02:06:26.723Z,74.47
2019-03-10T02:07:27.057Z,74.56
2019-03-10T02:08:26.904Z,74.54
2019-03-10T02:09:28.354Z,74.63
2019-03-10T02:10:28.965Z,74.72
2019-03-10T02:11:29.906Z,74.68
2019-03-10T02:12:30.404Z,74.81
2019-03-10T02:12:38.954Z,75.01
2019-03-10T02:13:40.739Z,75.03
2019-03-10T02:14:41.009Z,75.02
2019-03-10T02:15:41.879Z,75.08
2019-03-10T02:16:41.975Z,75.19
2019-03-10T02:17:42.305Z,75.38
2019-03-10T02:18:43.311Z,75.38
2019-03-10T02:19:43.613Z,75.61
2019-03-10T02:20:43.714Z,75.65
2019-03-10T02:21:44.012Z,75.62
2019-03-10T02:22:44.399Z,75.76
2019-03-10T02:23:44.601Z,75.85
2019-03-10T02:24:44.871Z,75.89
2019-03-10T02:25:45.226Z,76.41
2019-03-10T02:26:45.407Z,76.62
2019-03-10T02:27:45.932Z,76.75
2019-03-10T02:28:45.968Z,77.12
2019-03-10T02:29:46.187Z,77.50
2019-03-10T02:30:46.822Z,77.47
2019-03-10T02:31:47.161Z,77.69
2019-03-10T02:32:48.063Z,78.35
2019-03-10T02:33:48.219Z,78.34
2019-03-10T02:34:48.649Z,78.08
2019-03-10T02:35:49.372Z,78.50
2019-03-10T02:36:49.896Z,78.48
2019-03-10T02:37:50.094Z,78.64
2019-03-10T02:38:50.498Z,78.92
2019-03-10T02:39:50.541Z,78.15
2019-03-10T02:40:50.858Z,77.82
2019-03-10T02:41:51.333Z,78.05
2019-03-10T02:42:51.625Z,78.58
2019-03-10T02:43:51.771Z,78.75
2019-03-10T02:44:52.010Z,78.71
2019-03-10T02:45:51.173Z,78.75
2019-03-10T02:46:52.568Z,79.00
2019-03-10T02:47:53.032Z,79.02
2019-03-10T02:48:53.035Z,79.05
2019-03-10T02:49:53.960Z,79.31
2019-03-10T02:50:54.373Z,79.17
2019-03-10T02:51:54.436Z,79.35
2019-03-10T02:52:54.756Z,79.52
2019-03-10T02:53:54.944Z,79.33
2019-03-10T02:54:55.039Z,79.72
2019-03-10T02:55:55.457Z,79.57
2019-03-10T02:56:03.994Z,79.74
2019-03-10T02:57:05.295Z,79.70
2019-03-10T02:58:05.507Z,79.23
2019-03-10T02:59:05.957Z,79.04
2019-03-10T03:00:06.731Z,78.99
2019-03-10T03:01:07.114Z,78.92
2019-03-10T03:02:07.594Z,79.15
2019-03-10T03:03:07.867Z,79.09
2019-03-10T03:04:08.410Z,78.97
2019-03-10T03:05:08.750Z,78.89
2019-03-10T03:06:08.987Z,78.91
2019-03-10T03:07:09.649Z,79.06
2019-03-10T03:08:10.562Z,79.20
2019-03-10T03:09:11.220Z,79.15
2019-03-10T03:10:11.578Z,79.59
2019-03-10T03:11:11.979Z,79.71
2019-03-10T03:12:12.333Z,80.03
2019-03-10T03:13:12.661Z,80.14
2019-03-10T03:14:12.991Z,80.02
2019-03-10T03:15:12.870Z,80.79
2019-03-10T03:16:14.262Z,81.09
2019-03-10T03:17:14.574Z,81.79
2019-03-10T03:18:14.948Z,81.39
2019-03-10T03:19:14.106Z,81.58
2019-03-10T03:20:16.046Z,82.97
2019-03-10T03:21:16.232Z,83.22
2019-03-10T03:22:16.564Z,83.72
2019-03-10T03:23:16.743Z,84.31
2019-03-10T03:24:17.216Z,85.27
2019-03-10T03:25:17.479Z,85.35
2019-03-10T03:26:18.311Z,86.03
2019-03-10T03:27:18.885Z,86.97
2019-03-10T03:28:19.178Z,87.26
2019-03-10T03:29:19.603Z,86.84
2019-03-10T03:30:20.094Z,86.02
2019-03-10T03:31:20.566Z,85.96
2019-03-10T03:32:20.994Z,85.73
2019-03-10T03:33:21.307Z,86.40
2019-03-10T03:34:21.930Z,86.91
2019-03-10T03:35:22.212Z,87.36
2019-03-10T03:36:22.682Z,87.87
2019-03-10T03:37:23.093Z,88.05
2019-03-10T03:38:23.721Z,88.87
2019-03-10T03:39:24.543Z,89.52
2019-03-10T03:40:24.955Z,89.51
2019-03-10T03:40:33.564Z,89.80
2019-03-10T03:41:34.181Z,89.83
2019-03-10T03:42:35.854Z,90.40
2019-03-10T03:43:36.529Z,90.78
2019-03-10T03:44:37.152Z,91.09
2019-03-10T03:45:36.900Z,91.61
2019-03-10T03:46:38.267Z,91.43
2019-03-10T03:47:38.361Z,91.13
2019-03-10T03:48:38.606Z,91.04
2019-03-10T03:49:39.069Z,90.87
2019-03-10T03:50:39.358Z,90.63
2019-03-10T03:51:39.633Z,90.40
2019-03-10T03:52:39.879Z,90.50
2019-03-10T03:53:38.919Z,91.04
2019-03-10T03:54:40.216Z,90.59
2019-03-10T03:55:41.027Z,90.68
2019-03-10T03:56:41.139Z,91.53
2019-03-10T03:57:41.661Z,91.89
2019-03-10T03:58:42.146Z,92.16
2019-03-10T03:59:42.349Z,92.68
2019-03-10T04:00:42.692Z,92.67
2019-03-10T04:01:42.859Z,92.39
2019-03-10T04:02:43.415Z,92.58
2019-03-10T04:03:43.504Z,92.85
2019-03-10T04:04:43.555Z,93.44
2019-03-10T04:05:43.698Z,93.49
2019-03-10T04:06:44.197Z,93.93
2019-03-10T04:07:44.607Z,94.02
2019-03-10T04:08:45.355Z,93.77
2019-03-10T04:09:44.810Z,93.96
2019-03-10T04:10:46.272Z,93.88
2019-03-10T04:11:46.436Z,95.37
2019-03-10T04:12:47.110Z,95.03
2019-03-10T04:13:47.921Z,95.37
2019-03-10T04:14:48.135Z,95.25
2019-03-10T04:15:48.593Z,95.38
2019-03-10T04:16:49.011Z,95.84
2019-03-10T04:17:49.131Z,96.29
2019-03-10T04:18:49.438Z,96.61
2019-03-10T04:19:49.860Z,97.01
2019-03-10T04:20:50.272Z,97.51
2019-03-10T04:21:50.710Z,98.42
2019-03-10T04:22:51.256Z,98.95
2019-03-10T04:23:52.078Z,99.04
2019-03-10T04:24:52.392Z,99.43
2019-03-10T04:25:52.626Z,99.39
2019-03-10T04:26:01.179Z,99.65
2019-03-10T04:27:02.964Z,99.71
2019-03-10T04:28:03.456Z,100.26
2019-03-10T04:29:03.770Z,100.14
2019-03-10T04:30:04.353Z,100.51
2019-03-10T04:31:05.033Z,100.45
2019-03-10T04:32:05.811Z,100.76
2019-03-10T04:33:06.049Z,100.79
2019-03-10T04:34:06.868Z,101.11
2019-03-10T04:35:07.174Z,101.17
2019-03-10T04:36:08.036Z,100.88
2019-03-10T04:37:08.513Z,100.61
2019-03-10T04:38:08.419Z,100.58
2019-03-10T04:39:09.718Z,100.97
2019-03-10T04:40:09.851Z,100.63
2019-03-10T04:41:10.000Z,100.41
2019-03-10T04:42:10.442Z,100.87
2019-03-10T04:43:10.833Z,101.37
2019-03-10T04:44:11.390Z,101.20
2019-03-10T04:45:11.932Z,101.19
2019-03-10T04:46:12.120Z,100.91
2019-03-10T04:47:12.699Z,100.79
2019-03-10T04:48:13.293Z,100.87
2019-03-10T04:49:13.549Z,100.97
2019-03-10T04:50:13.623Z,101.28
2019-03-10T04:51:14.051Z,101.15
2019-03-10T04:52:14.730Z,101.18
2019-03-10T04:53:15.727Z,100.75
2019-03-10T04:54:15.962Z,100.93
2019-03-10T04:55:16.179Z,101.58
2019-03-10T04:56:16.467Z,101.59
2019-03-10T04:57:16.941Z,101.90
2019-03-10T04:58:17.381Z,102.08
2019-03-10T04:59:17.810Z,101.98
2019-03-10T05:00:17.271Z,102.26
2019-03-10T05:01:18.712Z,102.38
2019-03-10T05:02:19.300Z,102.61
2019-03-10T05:03:19.865Z,103.10
2019-03-10T05:04:20.801Z,103.21
2019-03-10T05:05:21.329Z,103.31
2019-03-10T05:06:21.661Z,103.32
2019-03-10T05:07:22.647Z,103.10
2019-03-10T05:08:23.288Z,103.13
2019-03-10T05:09:23.489Z,102.61
2019-03-10T05:10:25.286Z,102.58
2019-03-10T05:11:23.754Z,102.60
2019-03-10T05:11:32.280Z,102.81
2019-03-10T05:12:33.620Z,102.83
2019-03-10T05:13:34.997Z,102.74
2019-03-10T05:14:34.352Z,103.10
2019-03-10T05:15:34.790Z,103.00
2019-03-10T05:16:35.196Z,103.39
2019-03-10T05:17:34.653Z,103.31
2019-03-10T05:18:35.681Z,103.27
2019-03-10T05:19:36.053Z,103.21
2019-03-10T05:20:36.180Z,103.39
2019-03-10T05:21:36.196Z,103.59
2019-03-10T05:22:36.223Z,103.66
2019-03-10T05:23:37.250Z,103.66
2019-03-10T05:24:37.582Z,103.74
2019-03-10T05:25:38.154Z,103.70
2019-03-10T05:26:38.611Z,103.94
2019-03-10T05:27:39.100Z,104.00
2019-03-10T05:28:39.505Z,103.92
2019-03-10T05:29:39.688Z,103.79
2019-03-10T05:30:40.474Z,103.54
2019-03-10T05:31:40.799Z,103.35
2019-03-10T05:32:41.113Z,103.04
2019-03-10T05:33:41.114Z,103.06
2019-03-10T05:34:41.377Z,103.23
2019-03-10T05:35:42.194Z,103.14
2019-03-10T05:36:42.574Z,103.07
2019-03-10T05:37:43.566Z,102.99
2019-03-10T05:38:42.997Z,102.99
2019-03-10T05:39:44.216Z,103.16
2019-03-10T05:40:44.377Z,102.42
2019-03-10T05:41:44.400Z,101.93
2019-03-10T05:42:44.825Z,101.86
2019-03-10T05:43:45.012Z,101.94
2019-03-10T05:44:45.391Z,102.02
2019-03-10T05:45:46.100Z,101.75
2019-03-10T05:46:46.428Z,101.78
2019-03-10T05:47:46.704Z,101.96
2019-03-10T05:48:47.237Z,102.41
2019-03-10T05:49:47.507Z,102.75
2019-03-10T05:50:47.756Z,102.65
2019-03-10T05:51:47.983Z,102.46
2019-03-10T05:52:48.938Z,102.16
2019-03-10T05:53:49.073Z,102.30
2019-03-10T05:54:49.152Z,102.15
2019-03-10T05:55:49.293Z,102.50
2019-03-10T05:55:59.356Z,102.10
2019-03-10T05:57:01.176Z,102.12
2019-03-10T05:58:01.362Z,102.05
2019-03-10T05:59:01.459Z,102.13
2019-03-10T06:00:01.900Z,102.51
2019-03-10T06:01:02.096Z,102.63
2019-03-10T06:02:02.410Z,102.85
2019-03-10T06:03:02.650Z,102.85
2019-03-10T06:04:03.100Z,102.77
2019-03-10T06:05:05.839Z,102.41
2019-03-10T06:06:02.481Z,102.38
2019-03-10T06:07:04.432Z,102.14
2019-03-10T06:08:04.989Z,102.24
2019-03-10T06:09:05.068Z,102.37
2019-03-10T06:10:05.403Z,102.08
2019-03-10T06:11:04.411Z,101.83
2019-03-10T06:12:06.310Z,101.92
2019-03-10T06:13:06.445Z,101.84
2019-03-10T06:14:06.789Z,102.47
2019-03-10T06:15:07.310Z,102.83
2019-03-10T06:16:07.721Z,102.98
2019-03-10T06:17:07.854Z,103.03
2019-03-10T06:18:13.728Z,102.85
2019-03-10T06:19:07.368Z,102.71
2019-03-10T06:20:08.662Z,102.95
2019-03-10T06:21:08.929Z,102.78
2019-03-10T06:22:09.165Z,103.04
2019-03-10T06:23:09.781Z,102.90
2019-03-10T06:24:09.923Z,102.73
2019-03-10T06:25:10.189Z,102.50
2019-03-10T06:26:10.346Z,102.38
2019-03-10T06:27:10.519Z,102.34
2019-03-10T06:28:11.129Z,102.22
2019-03-10T06:29:11.762Z,102.35
2019-03-10T06:30:11.891Z,102.29
2019-03-10T06:31:12.242Z,102.11
2019-03-10T06:32:12.434Z,101.80
2019-03-10T06:33:12.958Z,101.46
2019-03-10T06:34:13.125Z,101.62
2019-03-10T06:35:12.556Z,101.42
2019-03-10T06:36:14.259Z,101.53
2019-03-10T06:37:14.322Z,101.57
2019-03-10T06:38:14.648Z,101.62
2019-03-10T06:39:15.015Z,102.09
2019-03-10T06:40:15.179Z,101.18
2019-03-10T06:41:15.310Z,101.02
2019-03-10T06:42:15.495Z,101.39
2019-03-10T06:42:24.059Z,102.11
2019-03-10T06:43:25.192Z,102.15
2019-03-10T06:44:25.637Z,102.44
2019-03-10T06:45:25.989Z,102.16
2019-03-10T06:46:26.430Z,102.12
2019-03-10T06:47:26.781Z,102.25
2019-03-10T06:48:27.078Z,102.40
2019-03-10T06:49:27.282Z,103.47
2019-03-10T06:50:27.857Z,103.36
2019-03-10T06:51:28.298Z,102.20
2019-03-10T06:52:28.384Z,102.39
2019-03-10T06:53:28.714Z,102.68
2019-03-10T06:54:29.326Z,102.84
2019-03-10T06:55:30.248Z,103.05
2019-03-10T06:56:30.860Z,103.16
2019-03-10T06:57:31.200Z,103.71
2019-03-10T06:58:31.374Z,103.62
2019-03-10T06:59:31.828Z,103.62
2019-03-10T07:00:32.327Z,103.74
2019-03-10T07:01:33.067Z,103.68
2019-03-10T07:02:33.265Z,103.24
2019-03-10T07:03:33.544Z,103.41
2019-03-10T07:04:33.601Z,103.25
2019-03-10T07:05:33.883Z,103.05
2019-03-10T07:06:34.819Z,103.13
2019-03-10T07:07:34.998Z,103.35
2019-03-10T07:08:35.348Z,103.59
2019-03-10T07:09:36.118Z,103.26
2019-03-10T07:10:36.508Z,103.30
2019-03-10T07:11:36.656Z,103.07
2019-03-10T07:12:37.177Z,103.26
2019-03-10T07:13:39.575Z,102.69
2019-03-10T07:14:37.146Z,102.22
2019-03-10T07:15:38.459Z,102.42
2019-03-10T07:16:38.667Z,102.72
2019-03-10T07:17:39.121Z,102.92
2019-03-10T07:18:39.403Z,103.11
2019-03-10T07:19:39.709Z,103.05
2019-03-10T07:20:39.990Z,102.38
2019-03-10T07:21:40.442Z,102.75
2019-03-10T07:22:40.708Z,102.53
2019-03-10T07:23:40.992Z,102.72
2019-03-10T07:24:41.323Z,102.98
2019-03-10T07:25:41.740Z,103.09
2019-03-10T07:26:42.411Z,103.57
2019-03-10T07:26:50.939Z,103.93
2019-03-10T07:27:51.036Z,103.95
2019-03-10T07:28:52.257Z,103.92
2019-03-10T07:29:52.713Z,104.05
2019-03-10T07:30:52.983Z,103.64
2019-03-10T07:31:53.057Z,103.63
2019-03-10T07:32:53.433Z,103.46
2019-03-10T07:33:54.082Z,102.70
2019-03-10T07:34:54.141Z,102.68
2019-03-10T07:35:54.382Z,101.94
2019-03-10T07:36:54.967Z,101.21
2019-03-10T07:37:55.250Z,100.23
2019-03-10T07:38:55.413Z,100.77
2019-03-10T07:39:55.462Z,100.58
2019-03-10T07:40:55.601Z,100.71
2019-03-10T07:41:55.684Z,100.39
2019-03-10T07:42:55.932Z,100.34
2019-03-10T07:43:56.021Z,100.33
2019-03-10T07:44:56.328Z,100.22
2019-03-10T07:45:56.436Z,100.13
2019-03-10T07:46:56.819Z,99.66
2019-03-10T07:47:57.133Z,99.53
2019-03-10T07:48:57.992Z,99.12
2019-03-10T07:49:58.370Z,98.99
2019-03-10T07:50:59.258Z,98.83
2019-03-10T07:51:59.197Z,98.82
2019-03-10T07:53:00.895Z,98.85
2019-03-10T07:54:01.051Z,98.89
2019-03-10T07:55:01.829Z,98.37
2019-03-10T07:56:02.347Z,98.17
2019-03-10T07:57:02.597Z,98.29
2019-03-10T07:58:01.968Z,97.98
2019-03-10T07:59:03.658Z,98.49
2019-03-10T08:00:03.867Z,98.47
2019-03-10T08:01:03.955Z,98.43
2019-03-10T08:02:04.195Z,98.36
2019-03-10T08:03:04.747Z,98.64
2019-03-10T08:04:05.002Z,98.64
2019-03-10T08:05:05.475Z,98.73
2019-03-10T08:06:06.004Z,99.00
2019-03-10T08:07:06.050Z,98.55
2019-03-10T08:08:06.422Z,98.68
2019-03-10T08:09:06.488Z,99.08
2019-03-10T08:10:07.168Z,98.85
2019-03-10T08:11:07.426Z,98.46
2019-03-10T08:12:07.640Z,98.51
2019-03-10T08:12:19.172Z,98.59
2019-03-10T08:13:20.705Z,98.59
2019-03-10T08:14:21.684Z,97.94
2019-03-10T08:15:22.244Z,97.39
2019-03-10T08:16:22.648Z,97.26
2019-03-10T08:17:24.602Z,97.62
2019-03-10T08:18:22.459Z,97.88
2019-03-10T08:19:22.975Z,97.69
2019-03-10T08:20:24.196Z,97.77
2019-03-10T08:21:24.348Z,97.55
2019-03-10T08:22:25.104Z,97.86
2019-03-10T08:23:25.583Z,97.74
2019-03-10T08:24:26.015Z,98.18
2019-03-10T08:25:26.548Z,98.02
2019-03-10T08:26:27.221Z,97.98
2019-03-10T08:27:27.454Z,97.92
2019-03-10T08:28:27.746Z,98.10
2019-03-10T08:29:28.407Z,97.87
2019-03-10T08:30:28.746Z,97.93
2019-03-10T08:31:28.757Z,97.54
2019-03-10T08:32:29.469Z,97.43
2019-03-10T08:33:30.283Z,97.72
2019-03-10T08:34:30.411Z,98.19
2019-03-10T08:35:31.210Z,97.83
2019-03-10T08:36:31.444Z,97.65
2019-03-10T08:37:31.925Z,97.16
2019-03-10T08:38:32.276Z,96.45
2019-03-10T08:39:32.487Z,96.66
2019-03-10T08:40:32.909Z,96.24
2019-03-10T08:41:33.701Z,96.52
2019-03-10T08:42:34.084Z,96.27
2019-03-10T08:43:34.472Z,96.38
2019-03-10T08:44:34.749Z,96.88
2019-03-10T08:45:35.157Z,96.73
2019-03-10T08:46:35.466Z,96.62
2019-03-10T08:47:35.449Z,96.70
2019-03-10T08:48:36.451Z,97.14
2019-03-10T08:49:44.776Z,96.83
2019-03-10T08:50:36.414Z,97.06
2019-03-10T08:51:37.968Z,97.15
2019-03-10T08:52:38.265Z,97.30
2019-03-10T08:53:37.368Z,96.58
2019-03-10T08:54:38.776Z,97.10
2019-03-10T08:55:39.839Z,96.90
2019-03-10T08:56:39.296Z,97.00
2019-03-10T08:57:40.529Z,97.65
2019-03-10T08:58:39.550Z,97.49
2019-03-10T08:59:40.908Z,98.07
2019-03-10T09:00:40.002Z,97.86
2019-03-10T09:01:41.533Z,97.71
2019-03-10T09:01:50.056Z,97.63
2019-03-10T09:02:51.532Z,97.57
2019-03-10T09:03:51.824Z,97.20
2019-03-10T09:04:52.779Z,97.35
2019-03-10T09:05:53.244Z,97.73
2019-03-10T09:06:54.133Z,97.92
2019-03-10T09:07:55.013Z,97.84
2019-03-10T09:08:55.149Z,97.60
2019-03-10T09:09:55.600Z,97.75
2019-03-10T09:10:56.174Z,97.41
2019-03-10T09:11:56.599Z,96.92
2019-03-10T09:12:55.975Z,96.77
2019-03-10T09:13:57.414Z,96.84
2019-03-10T09:14:58.021Z,96.30
2019-03-10T09:15:58.678Z,96.85
2019-03-10T09:16:58.878Z,96.69
2019-03-10T09:17:59.738Z,96.98
2019-03-10T09:19:00.155Z,97.06
2019-03-10T09:20:00.898Z,97.10
2019-03-10T09:21:00.553Z,96.83
2019-03-10T09:22:02.280Z,96.78
2019-03-10T09:23:02.389Z,97.38
2019-03-10T09:24:02.524Z,97.43
2019-03-10T09:25:02.819Z,96.57
2019-03-10T09:26:03.208Z,96.24
2019-03-10T09:27:03.750Z,96.56
2019-03-10T09:28:04.130Z,97.16
2019-03-10T09:29:04.263Z,97.15
2019-03-10T09:30:04.861Z,97.40
2019-03-10T09:31:05.196Z,97.56
2019-03-10T09:32:04.814Z,97.49
2019-03-10T09:33:06.380Z,97.40
2019-03-10T09:34:07.168Z,96.94
2019-03-10T09:35:06.710Z,96.64
2019-03-10T09:36:08.175Z,96.59
2019-03-10T09:37:07.542Z,96.75
2019-03-10T09:38:09.277Z,95.29
2019-03-10T09:39:09.627Z,93.29
2019-03-10T09:40:09.818Z,90.22
2019-03-10T09:41:10.003Z,89.09
2019-03-10T09:42:10.289Z,88.42
2019-03-10T09:43:10.681Z,86.79
2019-03-10T09:44:11.119Z,84.17
2019-03-10T09:45:11.884Z,83.82
2019-03-10T09:46:11.395Z,82.83
2019-03-10T09:47:11.795Z,81.78
2019-03-10T09:48:14.164Z,80.94
2019-03-10T09:49:12.516Z,81.33
2019-03-10T09:50:13.629Z,81.85
2019-03-10T09:51:13.918Z,81.89
2019-03-10T09:52:14.057Z,81.32
2019-03-10T09:53:14.620Z,81.52
2019-03-10T09:54:15.427Z,80.97
2019-03-10T09:55:15.968Z,82.08
2019-03-10T09:56:16.481Z,81.48
2019-03-10T09:57:16.750Z,80.98
2019-03-10T09:58:16.905Z,81.94
2019-03-10T09:58:29.027Z,83.40
2019-03-10T09:59:29.174Z,83.39
2019-03-10T10:00:29.705Z,81.13
2019-03-10T10:01:29.800Z,81.02
2019-03-10T10:02:30.339Z,81.90
2019-03-10T10:03:31.089Z,83.04
2019-03-10T10:04:31.213Z,80.14
2019-03-10T10:05:32.281Z,80.25
2019-03-10T10:06:33.081Z,80.79
2019-03-10T10:07:33.659Z,81.44
2019-03-10T10:08:33.191Z,81.77
2019-03-10T10:09:33.875Z,79.54
2019-03-10T10:10:34.039Z,79.14
2019-03-10T10:11:33.983Z,77.21
2019-03-10T10:13:34.643Z,76.00
2019-03-10T10:14:35.940Z,74.84
2019-03-10T10:15:35.625Z,75.50
2019-03-10T10:16:36.569Z,75.01
2019-03-10T10:17:37.149Z,74.83
2019-03-10T10:18:37.365Z,75.48
2019-03-10T10:19:38.271Z,74.72
2019-03-10T10:20:38.503Z,74.15
2019-03-10T10:21:39.148Z,74.90
2019-03-10T10:22:39.166Z,73.91
2019-03-10T10:23:39.704Z,73.15
2019-03-10T10:24:41.216Z,73.21
2019-03-10T10:25:44.359Z,74.28
2019-03-10T10:26:41.460Z,73.28
2019-03-10T10:27:43.401Z,71.64
2019-03-10T10:28:43.015Z,71.44
2019-03-10T10:29:44.445Z,71.98
2019-03-10T10:30:44.096Z,72.60
2019-03-10T10:31:44.550Z,73.33
2019-03-10T10:32:44.875Z,72.92
2019-03-10T10:33:45.079Z,72.98
2019-03-10T10:34:45.119Z,72.51
2019-03-10T10:35:45.501Z,73.06
2019-03-10T10:36:45.631Z,72.98
2019-03-10T10:37:46.685Z,72.67
2019-03-10T10:38:47.369Z,73.02
2019-03-10T10:39:47.637Z,72.77
2019-03-10T10:40:48.138Z,73.44
2019-03-10T10:41:48.190Z,72.66
2019-03-10T10:42:48.869Z,72.12
2019-03-10T10:43:49.301Z,72.60
2019-03-10T10:44:51.105Z,71.17
2019-03-10T10:45:53.625Z,71.19
2019-03-10T10:46:50.993Z,70.95
2019-03-10T10:47:51.894Z,70.40
2019-03-10T10:48:52.046Z,70.39
2019-03-10T10:49:53.489Z,70.42
2019-03-10T10:50:54.043Z,70.65
2019-03-10T10:51:53.459Z,70.91
2019-03-10T10:52:54.369Z,70.82
2019-03-10T10:53:57.087Z,71.09
2019-03-10T10:54:58.009Z,72.01
2019-03-10T10:55:55.648Z,71.84
2019-03-10T10:56:56.333Z,71.48
2019-03-10T10:57:57.492Z,70.92
2019-03-10T10:58:58.035Z,71.86
2019-03-10T10:59:58.511Z,70.83
2019-03-10T11:00:57.774Z,70.69
2019-03-10T11:01:59.142Z,70.82
2019-03-10T11:02:59.704Z,70.50
2019-03-10T11:04:00.698Z,70.98
2019-03-10T11:05:00.883Z,71.33
2019-03-10T11:06:01.053Z,71.13
2019-03-10T11:07:01.565Z,70.10
2019-03-10T11:08:01.802Z,69.89
2019-03-10T11:09:03.122Z,68.95
2019-03-10T11:10:01.971Z,68.72
2019-03-10T11:11:10.833Z,69.92
2019-03-10T11:12:03.364Z,69.53
2019-03-10T11:13:03.975Z,69.94
2019-03-10T11:14:05.651Z,69.21
2019-03-10T11:15:06.133Z,68.72
2019-03-10T11:16:06.863Z,67.80
2019-03-10T11:17:07.268Z,68.24
2019-03-10T11:18:09.743Z,68.76
2019-03-10T11:19:07.942Z,69.40
2019-03-10T11:20:09.200Z,68.96
2019-03-10T11:21:10.085Z,67.90
2019-03-10T11:22:10.551Z,68.73
2019-03-10T11:22:24.648Z,68.93
2019-03-10T11:23:25.009Z,68.98
2019-03-10T11:24:28.123Z,68.89
2019-03-10T11:25:33.526Z,68.88
2019-03-10T11:26:28.908Z,68.22
2019-03-10T11:27:27.063Z,67.84
2019-03-10T11:28:28.617Z,68.15
2019-03-10T11:29:28.548Z,68.21
2019-03-10T11:30:29.213Z,68.43
2019-03-10T11:31:30.474Z,68.88
2019-03-10T11:32:30.001Z,68.80
2019-03-10T11:33:31.393Z,68.55
2019-03-10T11:34:32.380Z,69.39
2019-03-10T11:35:32.955Z,69.98
2019-03-10T11:36:33.534Z,70.42
2019-03-10T11:37:34.037Z,70.96
2019-03-10T11:38:34.411Z,70.60
2019-03-10T11:39:34.894Z,70.83
2019-03-10T11:40:35.623Z,70.96
2019-03-10T11:41:36.649Z,71.61
2019-03-10T11:42:36.976Z,72.16
2019-03-10T11:43:37.145Z,72.33
2019-03-10T11:44:37.610Z,72.33
2019-03-10T11:45:38.347Z,72.48
2019-03-10T11:46:38.861Z,72.79
2019-03-10T11:47:39.615Z,72.76
2019-03-10T11:48:40.104Z,72.04
2019-03-10T11:49:40.576Z,72.43
2019-03-10T11:50:40.903Z,71.77
2019-03-10T11:51:41.208Z,72.93
2019-03-10T11:52:41.668Z,72.61
2019-03-10T11:53:41.752Z,71.99
2019-03-10T11:54:42.174Z,72.20
2019-03-10T11:55:42.684Z,72.38
2019-03-10T11:56:43.021Z,72.74
2019-03-10T11:57:43.020Z,72.44
2019-03-10T11:58:43.539Z,72.83
2019-03-10T11:59:44.121Z,72.73
2019-03-10T12:00:44.438Z,72.78
2019-03-10T12:01:45.279Z,72.34
2019-03-10T12:02:46.311Z,73.02
2019-03-10T12:03:46.936Z,72.00
2019-03-10T12:04:46.881Z,72.00
2019-03-10T12:05:47.029Z,70.93
2019-03-10T12:06:47.639Z,70.68
2019-03-10T12:07:48.753Z,71.28
2019-03-10T12:08:49.093Z,70.66
2019-03-10T12:09:49.931Z,70.77
2019-03-10T12:10:50.603Z,69.76
2019-03-10T12:11:51.085Z,68.17
2019-03-10T12:12:05.633Z,68.70
2019-03-10T12:13:09.439Z,68.51
2019-03-10T12:14:06.483Z,68.49
2019-03-10T12:15:07.702Z,68.46
2019-03-10T12:16:08.017Z,69.30
2019-03-10T12:17:08.777Z,69.07
2019-03-10T12:18:09.800Z,69.13
2019-03-10T12:19:10.117Z,69.87
2019-03-10T12:20:10.740Z,69.28
2019-03-10T12:21:12.867Z,69.06
2019-03-10T12:22:13.359Z,68.78
2019-03-10T12:23:11.712Z,68.99
2019-03-10T12:24:12.108Z,69.00
2019-03-10T12:25:12.746Z,68.50
2019-03-10T12:26:17.255Z,67.75
2019-03-10T12:27:15.278Z,67.66
2019-03-10T12:28:15.424Z,67.84
2019-03-10T12:29:16.407Z,67.95
2019-03-10T12:30:17.861Z,66.21
2019-03-10T12:31:16.291Z,66.13
2019-03-10T12:32:17.791Z,65.17
2019-03-10T12:33:25.930Z,65.26
2019-03-10T12:34:18.494Z,64.50
2019-03-10T12:35:18.988Z,63.28
2019-03-10T12:36:20.915Z,62.67
2019-03-10T12:37:21.372Z,61.34
2019-03-10T12:38:22.027Z,60.33
2019-03-10T12:39:21.665Z,60.50
2019-03-10T12:40:25.467Z,61.28